F/V Jeremi Simon — FHAF — position and weather

sailwx.info

Track history (hours):
 
Tides and Currents Weather Stations Pressure Air Temp Water Temp Dewpoint Dewpoint Depression Visibility Wind Speed Wind Dir Waves Ship Positions

F/V Jeremi Simon

Last reported at 2016-Jul-29 09:32 UTC. Time now 2016-Jul-30 03:29 UTC.
Position N 46°42' W 001°56'.

Length 19 m.

Type: Other ship. MMSI: 227415000.

Date/timePositionNaut miles runAvg speedWind from/ knotsBaromVisibWave heightAir tempDewpointWater temp
2016-Jul-29 09:32N 46°42' W 001°56'0 0.0
2016-Jul-29 08:33N 46°42' W 001°56'0 0.0
2016-Jul-29 07:33N 46°42' W 001°56'0 0.0
2016-Jul-28 09:14N 46°42' W 001°56'0 0.0
2016-Jul-28 08:33N 46°42' W 001°56'0 0.0
2016-Jul-27 17:29N 46°42' W 001°56'1 1.3
2016-Jul-27 16:33N 46°41' W 001°58'0 0.4
2016-Jul-27 15:33N 46°40' W 001°58'0 0.4
2016-Jul-27 14:34N 46°41' W 001°57'9 9.2
2016-Jul-27 13:33N 46°32' W 001°53'4 4.3
2016-Jul-27 12:33N 46°30' W 001°47'0 0.0
2016-Jul-27 11:34N 46°30' W 001°47'0 0.0
2016-Jul-27 10:33N 46°30' W 001°47'9 9.0
2016-Jul-27 09:34N 46°22' W 001°53'1010.1
2016-Jul-27 08:34N 46°13' W 001°59'2310.1
2016-Jul-27 06:19N 45°53' W 002°14'  
2016-Jul-24 08:29N 46°06' W 002°17'1310.3
2016-Jul-24 07:15N 46°18' W 002°10'710.3
2016-Jul-24 06:33N 46°25' W 002°07'1010.0
2016-Jul-24 05:33N 46°34' W 002°01'8 8.3
2016-Jul-24 04:34N 46°42' W 001°56'0 0.0
2016-Jul-22 08:33N 46°42' W 001°56'0 0.0
2016-Jul-22 07:33N 46°42' W 001°56'0 0.0
2016-Jul-22 05:33N 46°42' W 001°56'0 0.0
2016-Jul-21 18:08N 46°42' W 001°56'0 0.1
2016-Jul-21 17:32N 46°42' W 001°57'5 5.1
2016-Jul-21 16:33N 46°37' W 001°55'9 9.4
2016-Jul-21 15:33N 46°29' W 001°49'2 1.6
2016-Jul-21 14:33N 46°30' W 001°47'0 0.0
2016-Jul-21 13:33N 46°30' W 001°47'2 2.2
2016-Jul-21 12:33N 46°28' W 001°48'1 0.7
2016-Jul-21 11:33N 46°27' W 001°48'9 8.5
2016-Jul-21 10:31N 46°20' W 001°55'90 2.7
2016-Jul-20 01:33N 44°58' W 002°50'2 0.8
2016-Jul-19 23:30N 44°58' W 002°48'3 3.0
2016-Jul-19 22:33N 44°56' W 002°45'2 1.2
2016-Jul-19 20:31N 44°56' W 002°48'2 2.5
2016-Jul-19 19:33N 44°56' W 002°45'1 0.6
2016-Jul-19 18:33N 44°56' W 002°46'1 0.6
2016-Jul-19 17:33N 44°56' W 002°46'3 2.5
2016-Jul-19 16:34N 44°58' W 002°44'5 4.9
2016-Jul-19 15:33N 45°01' W 002°39'1 0.8
2016-Jul-19 14:33N 45°01' W 002°40'  
Track history (hours):
 
Tides and Currents Weather Stations Pressure Air Temp Water Temp Dewpoint Dewpoint Depression Visibility Wind Speed Wind Dir Waves Ship Positions

F/V Jeremi Simon

Last reported at 2016-Jul-29 09:32 UTC. Time now 2016-Jul-30 03:29 UTC.
Position N 46°42' W 001°56'.

Length 19 m.

Type: Other ship. MMSI: 227415000.

Date/timePositionNaut miles runAvg speedWind from/ knotsBaromVisibWave heightAir tempDewpointWater temp
2016-Jul-29 09:32N 46°42' W 001°56'0 0.0
2016-Jul-29 08:33N 46°42' W 001°56'0 0.0
2016-Jul-29 07:33N 46°42' W 001°56'0 0.0
2016-Jul-28 09:14N 46°42' W 001°56'0 0.0
2016-Jul-28 08:33N 46°42' W 001°56'0 0.0
2016-Jul-27 17:29N 46°42' W 001°56'1 1.3
2016-Jul-27 16:33N 46°41' W 001°58'0 0.4
2016-Jul-27 15:33N 46°40' W 001°58'0 0.4
2016-Jul-27 14:34N 46°41' W 001°57'9 9.2
2016-Jul-27 13:33N 46°32' W 001°53'4 4.3
2016-Jul-27 12:33N 46°30' W 001°47'0 0.0
2016-Jul-27 11:34N 46°30' W 001°47'0 0.0
2016-Jul-27 10:33N 46°30' W 001°47'9 9.0
2016-Jul-27 09:34N 46°22' W 001°53'1010.1
2016-Jul-27 08:34N 46°13' W 001°59'2310.1
2016-Jul-27 06:19N 45°53' W 002°14'  
2016-Jul-24 08:29N 46°06' W 002°17'1310.3
2016-Jul-24 07:15N 46°18' W 002°10'710.3
2016-Jul-24 06:33N 46°25' W 002°07'1010.0
2016-Jul-24 05:33N 46°34' W 002°01'8 8.3
2016-Jul-24 04:34N 46°42' W 001°56'0 0.0
2016-Jul-22 08:33N 46°42' W 001°56'0 0.0
2016-Jul-22 07:33N 46°42' W 001°56'0 0.0
2016-Jul-22 05:33N 46°42' W 001°56'0 0.0
2016-Jul-21 18:08N 46°42' W 001°56'0 0.1
2016-Jul-21 17:32N 46°42' W 001°57'5 5.1
2016-Jul-21 16:33N 46°37' W 001°55'9 9.4
2016-Jul-21 15:33N 46°29' W 001°49'2 1.6
2016-Jul-21 14:33N 46°30' W 001°47'0 0.0
2016-Jul-21 13:33N 46°30' W 001°47'2 2.2
2016-Jul-21 12:33N 46°28' W 001°48'1 0.7
2016-Jul-21 11:33N 46°27' W 001°48'9 8.5
2016-Jul-21 10:31N 46°20' W 001°55'90 2.7
2016-Jul-20 01:33N 44°58' W 002°50'2 0.8
2016-Jul-19 23:30N 44°58' W 002°48'3 3.0
2016-Jul-19 22:33N 44°56' W 002°45'2 1.2
2016-Jul-19 20:31N 44°56' W 002°48'2 2.5
2016-Jul-19 19:33N 44°56' W 002°45'1 0.6
2016-Jul-19 18:33N 44°56' W 002°46'1 0.6
2016-Jul-19 17:33N 44°56' W 002°46'3 2.5
2016-Jul-19 16:34N 44°58' W 002°44'5 4.9
2016-Jul-19 15:33N 45°01' W 002°39'1 0.8
2016-Jul-19 14:33N 45°01' W 002°40'  

Dump ship's entire track history